createdAt,value
2018-09-28T00:01:53.055Z,6.37
2018-09-28T00:04:21.497Z,6.27
2018-09-28T00:06:49.975Z,6.03
2018-09-28T00:09:18.561Z,6.37
2018-09-28T00:11:47.028Z,5.40
2018-09-28T00:14:15.828Z,6.37
2018-09-28T00:16:44.252Z,6.20
2018-09-28T00:19:12.714Z,5.90
2018-09-28T00:21:41.395Z,6.00
2018-09-28T00:24:09.817Z,5.80
2018-09-28T00:26:38.231Z,5.97
2018-09-28T00:29:06.678Z,6.20
2018-09-28T00:31:35.373Z,6.33
2018-09-28T00:34:03.827Z,5.10
2018-09-28T00:36:32.282Z,5.63
2018-09-28T00:39:00.977Z,6.57
2018-09-28T00:41:29.363Z,6.23
2018-09-28T00:43:57.767Z,5.90
2018-09-28T00:46:26.141Z,5.80
2018-09-28T00:48:54.666Z,6.20
2018-09-28T00:51:23.338Z,6.27
2018-09-28T00:53:51.784Z,6.63
2018-09-28T00:56:20.675Z,6.17
2018-09-28T00:58:49.123Z,5.77
2018-09-28T01:01:17.568Z,6.10
2018-09-28T01:03:47.235Z,6.30
2018-09-28T01:06:15.644Z,5.83
2018-09-28T01:08:44.108Z,6.17
2018-09-28T01:11:12.575Z,6.23
2018-09-28T01:13:41.608Z,6.40
2018-09-28T01:16:09.988Z,6.30
2018-09-28T01:18:38.385Z,5.60
2018-09-28T01:21:06.848Z,5.73
2018-09-28T01:23:35.426Z,5.63
2018-09-28T01:26:04.216Z,6.20
2018-09-28T01:28:32.662Z,5.80
2018-09-28T01:31:01.372Z,5.77
2018-09-28T01:33:29.809Z,6.13
2018-09-28T01:35:58.246Z,5.80
2018-09-28T01:38:26.657Z,6.20
2018-09-28T01:40:55.104Z,6.43
2018-09-28T01:43:23.485Z,5.93
2018-09-28T01:45:51.916Z,6.40
2018-09-28T01:48:20.329Z,6.47
2018-09-28T01:50:49.227Z,6.27
2018-09-28T01:53:17.652Z,5.47
2018-09-28T01:55:46.060Z,6.43
2018-09-28T01:58:15.051Z,6.10
2018-09-28T02:00:43.549Z,6.17
2018-09-28T02:03:12.017Z,6.90
2018-09-28T02:05:40.403Z,6.23
2018-09-28T02:08:08.822Z,6.03
2018-09-28T02:10:37.181Z,6.20
2018-09-28T02:13:05.621Z,6.13
2018-09-28T02:15:39.650Z,5.90
2018-09-28T02:18:08.482Z,6.37
2018-09-28T02:20:37.553Z,5.77
2018-09-28T02:23:06.038Z,5.40
2018-09-28T02:25:34.655Z,5.80
2018-09-28T02:28:03.117Z,5.83
2018-09-28T02:30:31.796Z,5.47
2018-09-28T02:33:00.447Z,6.87
2018-09-28T02:35:29.662Z,6.50
2018-09-28T02:37:58.464Z,5.57
2018-09-28T02:40:26.923Z,5.47
2018-09-28T02:42:55.619Z,5.90
2018-09-28T02:45:24.556Z,5.30
2018-09-28T02:47:53.016Z,5.90
2018-09-28T02:50:21.428Z,5.10
2018-09-28T02:52:50.218Z,5.70
2018-09-28T02:55:18.640Z,5.47
2018-09-28T02:57:47.048Z,5.20
2018-09-28T03:00:15.798Z,6.00
2018-09-28T03:02:44.270Z,5.07
2018-09-28T03:05:12.734Z,5.63
2018-09-28T03:07:41.134Z,5.60
2018-09-28T03:10:09.809Z,5.37
2018-09-28T03:12:38.245Z,5.40
2018-09-28T03:15:06.675Z,5.27
2018-09-28T03:17:35.152Z,5.20
2018-09-28T03:20:03.745Z,4.93
2018-09-28T03:22:32.166Z,4.80
2018-09-28T03:25:00.571Z,5.37
2018-09-28T03:27:29.217Z,5.10
2018-09-28T03:29:57.672Z,5.23
2018-09-28T03:32:26.604Z,5.00
2018-09-28T03:34:55.438Z,5.00
2018-09-28T03:37:23.845Z,4.93
2018-09-28T03:39:52.515Z,5.43
2018-09-28T03:42:20.934Z,5.50
2018-09-28T03:44:49.874Z,5.13
2018-09-28T03:47:18.308Z,5.40
2018-09-28T03:49:46.727Z,5.47
2018-09-28T03:52:15.422Z,5.30
2018-09-28T03:54:43.858Z,5.60
2018-09-28T03:57:12.272Z,5.43
2018-09-28T03:59:40.933Z,5.50
2018-09-28T04:02:09.376Z,5.37
2018-09-28T04:04:38.066Z,5.50
2018-09-28T04:07:06.491Z,5.23
2018-09-28T04:09:34.948Z,5.90
2018-09-28T04:12:03.381Z,5.43
2018-09-28T04:14:31.813Z,5.53
2018-09-28T04:17:00.588Z,6.27
2018-09-28T04:19:29.006Z,5.20
2018-09-28T04:21:59.300Z,5.00
2018-09-28T04:24:28.257Z,5.20
2018-09-28T06:27:18.606Z,5.63
2018-09-28T06:29:47.291Z,5.50
2018-09-28T06:32:16.026Z,4.80
2018-09-28T06:34:44.474Z,5.60
2018-09-28T06:37:13.219Z,5.60
2018-09-28T06:39:41.698Z,5.00
2018-09-28T06:42:10.612Z,5.43
2018-09-28T06:44:39.339Z,5.73
2018-09-28T06:47:07.982Z,5.90
2018-09-28T06:49:36.643Z,6.20
2018-09-28T06:52:05.559Z,6.20
2018-09-28T06:54:34.345Z,7.50
2018-09-28T06:57:03.058Z,6.87
2018-09-28T06:59:32.533Z,7.17
2018-09-28T07:02:01.248Z,7.00
2018-09-28T07:04:30.255Z,7.27
2018-09-28T07:06:58.802Z,7.20
2018-09-28T07:09:27.262Z,7.13
2018-09-28T07:11:56.261Z,6.90
2018-09-28T07:14:24.848Z,6.60
2018-09-28T07:16:54.227Z,6.40
2018-09-28T07:19:22.940Z,6.07
2018-09-28T07:21:51.944Z,5.80
2018-09-28T07:24:20.407Z,5.00
2018-09-28T07:26:48.878Z,5.33
2018-09-28T07:29:18.230Z,5.53
2018-09-28T07:31:46.733Z,5.30
2018-09-28T07:34:15.219Z,5.20
2018-09-28T07:36:44.415Z,4.90
2018-09-28T07:39:13.156Z,5.10
2018-09-28T07:41:42.250Z,5.33
2018-09-28T07:44:10.704Z,5.97
2018-09-28T07:46:39.602Z,5.70
2018-09-28T07:49:08.099Z,5.97
2018-09-28T07:51:36.592Z,5.47
2018-09-28T07:54:05.048Z,5.70
2018-09-28T07:56:34.228Z,5.55
2018-09-28T07:59:02.915Z,4.95
2018-09-28T08:01:31.436Z,5.58
2018-09-28T08:03:59.955Z,5.70
2018-09-28T08:06:28.711Z,5.45
2018-09-28T08:08:57.864Z,5.70
2018-09-28T08:11:26.764Z,5.80
2018-09-28T08:13:55.437Z,6.45
2018-09-28T08:16:24.129Z,5.87
2018-09-28T08:18:52.643Z,6.00
2018-09-28T08:21:21.887Z,6.30
2018-09-28T08:23:50.592Z,5.83
2018-09-28T08:26:19.443Z,7.00
2018-09-28T08:28:48.077Z,6.25
2018-09-28T08:31:16.721Z,6.65
2018-09-28T08:33:45.333Z,6.47
2018-09-28T08:36:13.812Z,6.90
2018-09-28T08:38:42.353Z,6.72
2018-09-28T08:41:11.354Z,6.97
2018-09-28T08:43:39.865Z,7.08
2018-09-28T08:46:08.303Z,7.05
2018-09-28T08:48:37.238Z,7.12
2018-09-28T08:51:06.571Z,6.80
2018-09-28T08:53:35.665Z,7.37
2018-09-28T08:56:04.428Z,7.30
2018-09-28T08:58:32.865Z,7.35
2018-09-28T09:01:01.597Z,7.35
2018-09-28T09:03:30.637Z,7.08
2018-09-28T09:05:59.284Z,7.17
2018-09-28T09:08:28.102Z,6.92
2018-09-28T09:10:56.616Z,7.42
2018-09-28T09:13:25.168Z,7.55
2018-09-28T09:15:54.074Z,7.37
2018-09-28T09:18:23.605Z,7.40
2018-09-28T09:20:51.919Z,7.30
2018-09-28T09:23:20.469Z,8.00
2018-09-28T09:25:49.184Z,7.17
2018-09-28T09:28:17.876Z,7.17
2018-09-28T09:30:46.387Z,7.25
2018-09-28T09:33:14.941Z,7.08
2018-09-28T09:35:43.784Z,7.30
2018-09-28T09:38:13.048Z,7.17
2018-09-28T09:40:42.196Z,6.85
2018-09-28T09:43:10.657Z,6.87
2018-09-28T09:45:39.256Z,8.08
2018-09-28T09:48:08.957Z,7.72
2018-09-28T09:50:38.096Z,7.60
2018-09-28T09:53:06.599Z,8.18
2018-09-28T09:55:35.278Z,7.90
2018-09-28T09:58:03.929Z,7.83
2018-09-28T10:00:37.613Z,8.13
2018-09-28T10:03:11.426Z,7.37
2018-09-28T10:05:40.054Z,7.20
2018-09-28T10:08:08.742Z,7.05
2018-09-28T10:10:37.490Z,7.72
2018-09-28T10:13:06.337Z,7.25
2018-09-28T10:15:34.830Z,7.27
2018-09-28T10:18:03.530Z,8.03
2018-09-28T10:20:32.318Z,8.53
2018-09-28T10:23:01.463Z,8.27
2018-09-28T10:25:29.959Z,8.57
2018-09-28T10:27:59.168Z,8.03
2018-09-28T10:30:27.653Z,8.23
2018-09-28T10:32:56.089Z,7.83
2018-09-28T10:35:25.296Z,7.83
2018-09-28T10:37:53.734Z,8.00
2018-09-28T10:40:22.333Z,7.40
2018-09-28T10:42:51.092Z,7.30
2018-09-28T10:45:20.035Z,7.80
2018-09-28T10:47:48.444Z,6.30
2018-09-28T10:50:17.175Z,6.40
2018-09-28T10:52:45.741Z,6.00
2018-09-28T10:55:14.146Z,5.83
2018-09-28T10:57:42.716Z,5.93
2018-09-28T11:00:11.653Z,5.77
2018-09-28T11:02:40.557Z,5.77
2018-09-28T11:05:09.215Z,6.37
2018-09-28T11:07:37.761Z,5.40
2018-09-28T11:10:06.507Z,5.97
2018-09-28T11:12:35.126Z,5.20
2018-09-28T11:15:03.836Z,4.63
2018-09-28T11:17:32.558Z,4.67
2018-09-28T11:22:52.404Z,5.50
2018-09-28T11:25:21.110Z,5.63
2018-09-28T11:27:49.617Z,6.20
2018-09-28T11:30:49.898Z,7.10
2018-09-28T11:37:01.676Z,7.50
2018-09-28T11:39:45.158Z,6.60
2018-09-28T11:42:22.265Z,5.50
2018-09-28T11:44:51.009Z,3.60
2018-09-28T11:47:19.786Z,4.23
2018-09-28T11:49:48.247Z,3.70
2018-09-28T11:52:16.770Z,4.00
2018-09-28T11:54:45.225Z,3.60
2018-09-28T11:57:13.710Z,3.30
2018-09-28T11:59:42.294Z,3.73
2018-09-28T12:02:11.216Z,3.57
2018-09-28T12:04:39.989Z,3.47
2018-09-28T12:07:08.558Z,3.33
2018-09-28T12:09:36.998Z,3.67
2018-09-28T12:12:05.446Z,3.70
2018-09-28T12:14:34.066Z,3.63
2018-09-28T12:17:03.178Z,4.20
2018-09-28T12:19:32.528Z,3.97
2018-09-28T12:22:00.957Z,4.93
2018-09-28T12:24:29.965Z,3.67
2018-09-28T12:26:58.903Z,3.83
2018-09-28T12:29:27.598Z,3.60
2018-09-28T12:31:56.006Z,3.70
2018-09-28T12:34:24.459Z,3.60
2018-09-28T12:36:53.355Z,3.20
2018-09-28T12:39:21.987Z,3.10
2018-09-28T12:41:50.861Z,3.30
2018-09-28T12:44:19.776Z,3.10
2018-09-28T12:46:48.188Z,3.33
2018-09-28T12:49:17.776Z,3.10
2018-09-28T12:51:46.455Z,3.13
2018-09-28T12:54:15.238Z,2.90
2018-09-28T12:56:44.438Z,3.30
2018-09-28T12:59:13.690Z,4.67
2018-09-28T13:01:42.175Z,3.47
2018-09-28T13:04:17.442Z,3.40
2018-09-28T13:06:47.916Z,3.17
2018-09-28T13:09:16.501Z,3.40
2018-09-28T13:11:45.196Z,3.30
2018-09-28T13:14:13.748Z,3.40
2018-09-28T13:16:42.375Z,3.40
2018-09-28T13:19:10.924Z,3.27
2018-09-28T13:21:39.974Z,3.53
2018-09-28T13:24:08.574Z,3.60
2018-09-28T13:26:37.433Z,3.60
2018-09-28T13:29:06.434Z,3.50
2018-09-28T13:31:35.647Z,3.57
2018-09-28T13:34:04.154Z,3.80
2018-09-28T13:36:32.687Z,3.20
2018-09-28T13:39:01.913Z,3.97
2018-09-28T13:41:30.343Z,2.77
2018-09-28T13:43:58.792Z,3.20
2018-09-28T13:46:27.327Z,2.70
2018-09-28T13:48:55.817Z,3.50
2018-09-28T13:51:24.437Z,3.83
2018-09-28T13:53:52.959Z,3.70
2018-09-28T13:56:21.745Z,3.63
2018-09-28T13:58:50.686Z,3.47
2018-09-28T14:01:19.400Z,3.30
2018-09-28T14:03:48.353Z,3.37
2018-09-28T14:06:17.136Z,3.27
2018-09-28T14:08:45.733Z,3.80
2018-09-28T14:11:14.393Z,2.87
2018-09-28T14:13:43.035Z,2.80
2018-09-28T14:16:11.691Z,2.93
2018-09-28T14:18:40.457Z,2.90
2018-09-28T14:21:09.044Z,3.10
2018-09-28T14:23:37.464Z,2.77
2018-09-28T14:26:05.969Z,2.70
2018-09-28T14:28:34.659Z,2.63
2018-09-28T14:31:03.602Z,2.80
2018-09-28T14:33:32.090Z,2.90
2018-09-28T14:36:01.044Z,2.37
2018-09-28T14:38:29.582Z,2.27
2018-09-28T14:40:58.088Z,2.57
2018-09-28T14:43:26.853Z,2.83
2018-09-28T14:45:55.925Z,2.33
2018-09-28T14:48:24.906Z,2.60
2018-09-28T14:50:53.902Z,2.47
2018-09-28T14:53:22.397Z,2.50
2018-09-28T14:55:52.001Z,2.53
2018-09-28T14:58:20.607Z,2.30
2018-09-28T15:00:49.748Z,2.50
2018-09-28T15:03:18.922Z,2.70
2018-09-28T15:05:47.494Z,2.60
2018-09-28T15:08:16.634Z,2.37
2018-09-28T15:10:45.759Z,2.93
2018-09-28T15:13:14.175Z,2.67
2018-09-28T15:15:43.223Z,3.17
2018-09-28T15:18:11.858Z,3.00
2018-09-28T15:20:40.756Z,2.90
2018-09-28T15:23:09.523Z,2.80
2018-09-28T15:25:38.563Z,3.07
2018-09-28T15:28:07.501Z,3.00
2018-09-28T15:30:36.185Z,2.60
2018-09-28T15:33:05.077Z,2.47
2018-09-28T15:35:33.554Z,2.77
2018-09-28T15:38:02.200Z,2.87
2018-09-28T15:40:30.778Z,2.90
2018-09-28T15:42:59.545Z,3.10
2018-09-28T15:45:28.046Z,3.23
2018-09-28T15:47:57.098Z,2.80
2018-09-28T15:50:25.734Z,4.10
2018-09-28T15:52:54.486Z,2.97
2018-09-28T15:55:23.715Z,2.80
2018-09-28T15:57:52.733Z,3.07
2018-09-28T16:00:21.360Z,2.57
2018-09-28T16:02:49.780Z,3.13
2018-09-28T16:05:18.215Z,3.60
2018-09-28T16:07:47.038Z,2.77
2018-09-28T16:10:15.558Z,2.80
2018-09-28T16:12:44.410Z,2.93
2018-09-28T16:15:13.279Z,2.93
2018-09-28T16:17:42.031Z,3.17
2018-09-28T16:20:10.864Z,3.30
2018-09-28T16:22:39.321Z,2.97
2018-09-28T16:25:08.346Z,3.00
2018-09-28T16:27:36.996Z,3.27
2018-09-28T16:30:05.981Z,3.23
2018-09-28T16:32:35.109Z,2.90
2018-09-28T16:35:03.655Z,3.63
2018-09-28T16:37:32.471Z,3.40
2018-09-28T16:40:00.921Z,3.50
2018-09-28T16:42:29.397Z,3.20
2018-09-28T16:44:58.254Z,3.60
2018-09-28T16:47:27.164Z,2.93
2018-09-28T16:49:55.852Z,3.70
2018-09-28T16:52:24.473Z,3.20
2018-09-28T16:54:53.254Z,3.27
2018-09-28T16:57:21.857Z,3.90
2018-09-28T16:59:50.460Z,4.20
2018-09-28T17:02:19.096Z,4.77
2018-09-28T17:04:47.729Z,5.03
2018-09-28T17:07:16.911Z,5.17
2018-09-28T17:09:45.662Z,5.17
2018-09-28T17:12:14.109Z,5.30
2018-09-28T17:14:42.880Z,5.07
2018-09-28T17:17:11.514Z,4.30
2018-09-28T17:19:39.976Z,4.67
2018-09-28T17:22:08.801Z,4.63
2018-09-28T17:24:37.607Z,4.03
2018-09-28T17:27:06.967Z,4.43
2018-09-28T17:29:35.394Z,4.03
2018-09-28T17:32:04.029Z,4.30
2018-09-28T17:34:32.452Z,4.00
2018-09-28T17:37:01.098Z,4.03
2018-09-28T17:39:30.149Z,4.27
2018-09-28T17:41:58.803Z,4.93
2018-09-28T17:44:27.628Z,4.90
2018-09-28T17:46:56.332Z,4.77
2018-09-28T17:49:25.070Z,5.20
2018-09-28T17:51:53.715Z,5.30
2018-09-28T17:54:22.473Z,5.53
2018-09-28T17:56:51.765Z,5.50
2018-09-28T17:59:20.732Z,5.93
2018-09-28T18:01:49.556Z,6.10
2018-09-28T18:04:18.856Z,5.30
2018-09-28T18:06:47.397Z,6.20
2018-09-28T18:09:15.825Z,6.73
2018-09-28T18:11:44.989Z,7.47
2018-09-28T18:14:14.342Z,6.77
2018-09-28T18:16:43.184Z,7.53
2018-09-28T18:19:11.898Z,7.13
2018-09-28T18:21:40.353Z,6.93
2018-09-28T18:24:08.992Z,7.10
2018-09-28T18:26:37.915Z,7.07
2018-09-28T18:29:06.361Z,7.90
2018-09-28T18:31:34.817Z,7.60
2018-09-28T18:34:03.428Z,7.30
2018-09-28T18:36:32.034Z,6.33
2018-09-28T18:39:00.814Z,6.97
2018-09-28T18:41:29.307Z,7.33
2018-09-28T18:43:58.152Z,6.83
2018-09-28T18:46:26.807Z,7.10
2018-09-28T18:48:55.606Z,6.63
2018-09-28T18:51:24.312Z,7.90
2018-09-28T18:53:53.316Z,8.00
2018-09-28T18:56:22.022Z,9.03
2018-09-28T18:58:50.857Z,9.30
2018-09-28T19:01:19.845Z,9.30
2018-09-28T19:03:48.480Z,9.47
2018-09-28T19:06:17.089Z,9.37
2018-09-28T19:08:45.745Z,9.43
2018-09-28T19:11:19.201Z,9.53
2018-09-28T19:13:47.925Z,9.53
2018-09-28T19:16:16.446Z,9.00
2018-09-28T19:18:45.558Z,9.60
2018-09-28T19:21:14.435Z,10.40
2018-09-28T19:23:43.098Z,10.23
2018-09-28T19:26:11.923Z,10.83
2018-09-28T19:28:40.350Z,10.90
2018-09-28T19:31:09.512Z,9.47
2018-09-28T19:33:38.072Z,10.83
2018-09-28T19:36:06.849Z,10.07
2018-09-28T19:38:35.460Z,9.30
2018-09-28T19:41:04.223Z,9.17
2018-09-28T19:43:32.925Z,9.00
2018-09-28T19:46:02.327Z,8.60
2018-09-28T19:48:30.775Z,8.03
2018-09-28T19:50:59.675Z,7.73
2018-09-28T19:53:29.114Z,7.77
2018-09-28T19:55:58.484Z,7.90
2018-09-28T19:58:27.612Z,8.00
2018-09-28T20:00:56.105Z,8.10
2018-09-28T20:03:25.173Z,8.57
2018-09-28T20:05:53.866Z,8.73
2018-09-28T20:08:22.752Z,8.70
2018-09-28T20:10:51.581Z,8.70
2018-09-28T20:13:20.044Z,9.43
2018-09-28T20:15:48.844Z,8.50
2018-09-28T20:18:17.527Z,9.33
2018-09-28T20:20:46.242Z,9.57
2018-09-28T20:23:15.353Z,9.90
2018-09-28T20:25:44.338Z,10.00
2018-09-28T20:28:13.023Z,10.03
2018-09-28T20:30:41.692Z,8.90
2018-09-28T20:33:10.568Z,10.03
2018-09-28T20:35:39.028Z,9.60
2018-09-28T20:38:07.897Z,9.33
2018-09-28T20:40:36.347Z,10.07
2018-09-28T20:43:05.388Z,9.83
2018-09-28T20:45:34.283Z,8.93
2018-09-28T20:48:02.924Z,8.40
2018-09-28T20:50:31.508Z,8.30
2018-09-28T20:52:59.942Z,6.77
2018-09-28T20:55:28.414Z,6.47
2018-09-28T20:57:57.092Z,6.43
2018-09-28T21:00:26.432Z,5.97
2018-09-28T21:02:54.899Z,5.87
2018-09-28T21:05:23.504Z,5.47
2018-09-28T21:07:51.935Z,6.10
2018-09-28T21:10:20.766Z,5.37
2018-09-28T21:12:49.887Z,5.17
2018-09-28T21:15:18.434Z,4.70
2018-09-28T21:17:47.164Z,5.00
2018-09-28T21:20:15.640Z,4.57
2018-09-28T21:22:44.336Z,3.93
2018-09-28T21:25:13.207Z,4.37
2018-09-28T21:27:41.875Z,4.20
2018-09-28T21:30:10.294Z,3.90
2018-09-28T21:32:38.791Z,3.70
2018-09-28T21:35:07.544Z,4.10
2018-09-28T21:37:37.529Z,3.90
2018-09-28T21:40:06.061Z,3.53
2018-09-28T21:42:34.511Z,3.73
2018-09-28T21:45:03.109Z,3.73
2018-09-28T21:47:31.769Z,3.70
2018-09-28T21:50:00.947Z,3.90
2018-09-28T21:52:29.573Z,4.03
2018-09-28T21:54:58.071Z,3.53
2018-09-28T21:57:26.571Z,4.20
2018-09-28T21:59:55.656Z,3.83
2018-09-28T22:02:24.221Z,4.70
2018-09-28T22:04:53.310Z,4.37
2018-09-28T22:07:21.765Z,4.37
2018-09-28T22:09:50.334Z,4.87
2018-09-28T22:12:18.754Z,4.97
2018-09-28T22:14:47.914Z,5.30
2018-09-28T22:17:16.439Z,4.90
2018-09-28T22:19:45.078Z,5.40
2018-09-28T22:22:14.031Z,5.83
2018-09-28T22:24:42.871Z,5.97
2018-09-28T22:27:11.578Z,6.10
2018-09-28T22:29:40.504Z,6.13
2018-09-28T22:32:09.589Z,6.80
2018-09-28T22:34:38.286Z,6.73
2018-09-28T22:37:07.123Z,7.17
2018-09-28T22:39:36.144Z,7.50
2018-09-28T22:42:05.013Z,7.30
2018-09-28T22:44:33.550Z,8.07
2018-09-28T22:47:02.227Z,8.03
2018-09-28T22:49:30.695Z,8.30
2018-09-28T22:51:59.453Z,8.80
2018-09-28T22:54:28.279Z,8.77
2018-09-28T22:56:56.720Z,9.07
2018-09-28T22:59:25.247Z,9.67
2018-09-28T23:01:54.013Z,10.10
2018-09-28T23:04:22.453Z,10.10
2018-09-28T23:06:50.895Z,9.73
2018-09-28T23:09:19.655Z,10.37
2018-09-28T23:11:48.104Z,10.60
2018-09-28T23:14:17.031Z,11.00
2018-09-28T23:16:45.540Z,11.50
2018-09-28T23:19:14.023Z,11.60
2018-09-28T23:21:42.500Z,11.93
2018-09-28T23:24:10.892Z,12.40
2018-09-28T23:26:39.918Z,12.57
2018-09-28T23:29:08.759Z,12.40
2018-09-28T23:31:37.223Z,12.83
2018-09-28T23:34:05.677Z,13.00
2018-09-28T23:36:34.354Z,13.07
2018-09-28T23:39:02.823Z,12.70
2018-09-28T23:41:32.169Z,12.50
2018-09-28T23:44:00.852Z,12.80
2018-09-28T23:46:30.118Z,12.67
2018-09-28T23:48:58.724Z,12.37
2018-09-28T23:51:27.727Z,11.80
2018-09-28T23:53:56.618Z,11.73
2018-09-28T23:56:25.045Z,12.20
2018-09-28T23:58:53.737Z,12.10
